sensor_id;sensor_type;location;lat;lon;timestamp;P1;durP1;ratioP1;P2;durP2;ratioP2
5999;SDS011;3028;49.468;7.694;2023-03-01T00:00:22;8.90;;;8.20;;
5999;SDS011;3028;49.468;7.694;2023-03-01T00:02:24;8.50;;;7.77;;
5999;SDS011;3028;49.468;7.694;2023-03-01T00:04:25;9.07;;;8.27;;
5999;SDS011;3028;49.468;7.694;2023-03-01T00:06:28;8.77;;;8.07;;
5999;SDS011;3028;49.468;7.694;2023-03-01T00:08:31;8.80;;;8.03;;
5999;SDS011;3028;49.468;7.694;2023-03-01T00:10:34;8.60;;;7.90;;
5999;SDS011;3028;49.468;7.694;2023-03-01T00:12:35;9.20;;;8.27;;
5999;SDS011;3028;49.468;7.694;2023-03-01T00:14:37;10.93;;;10.07;;
5999;SDS011;3028;49.468;7.694;2023-03-01T00:16:40;10.50;;;9.70;;
5999;SDS011;3028;49.468;7.694;2023-03-01T00:18:43;10.67;;;9.67;;
5999;SDS011;3028;49.468;7.694;2023-03-01T00:20:51;9.67;;;8.87;;
5999;SDS011;3028;49.468;7.694;2023-03-01T00:22:53;9.57;;;8.67;;
5999;SDS011;3028;49.468;7.694;2023-03-01T00:24:55;10.57;;;8.30;;
5999;SDS011;3028;49.468;7.694;2023-03-01T00:26:57;9.23;;;8.53;;
5999;SDS011;3028;49.468;7.694;2023-03-01T00:28:59;10.23;;;9.23;;
5999;SDS011;3028;49.468;7.694;2023-03-01T00:31:04;11.70;;;10.70;;
5999;SDS011;3028;49.468;7.694;2023-03-01T00:33:10;10.13;;;9.27;;
5999;SDS011;3028;49.468;7.694;2023-03-01T00:35:12;10.77;;;9.90;;
5999;SDS011;3028;49.468;7.694;2023-03-01T00:37:13;10.77;;;9.73;;
5999;SDS011;3028;49.468;7.694;2023-03-01T00:39:18;10.40;;;9.60;;
5999;SDS011;3028;49.468;7.694;2023-03-01T00:41:20;9.77;;;8.97;;
5999;SDS011;3028;49.468;7.694;2023-03-01T00:43:23;10.27;;;9.37;;
5999;SDS011;3028;49.468;7.694;2023-03-01T00:45:25;16.90;;;9.80;;
5999;SDS011;3028;49.468;7.694;2023-03-01T00:47:28;10.90;;;10.03;;
5999;SDS011;3028;49.468;7.694;2023-03-01T00:49:30;9.37;;;8.67;;
5999;SDS011;3028;49.468;7.694;2023-03-01T00:51:32;9.57;;;8.87;;
5999;SDS011;3028;49.468;7.694;2023-03-01T00:53:34;10.37;;;9.37;;
5999;SDS011;3028;49.468;7.694;2023-03-01T00:55:37;11.13;;;10.13;;
5999;SDS011;3028;49.468;7.694;2023-03-01T00:57:38;11.00;;;8.87;;
5999;SDS011;3028;49.468;7.694;2023-03-01T00:59:40;8.37;;;7.73;;
5999;SDS011;3028;49.468;7.694;2023-03-01T01:01:42;9.60;;;8.80;;
5999;SDS011;3028;49.468;7.694;2023-03-01T01:03:51;9.90;;;9.10;;
5999;SDS011;3028;49.468;7.694;2023-03-01T01:06:03;10.63;;;9.70;;
5999;SDS011;3028;49.468;7.694;2023-03-01T01:08:10;11.93;;;10.40;;
5999;SDS011;3028;49.468;7.694;2023-03-01T01:10:12;10.93;;;9.00;;
5999;SDS011;3028;49.468;7.694;2023-03-01T01:12:18;10.40;;;9.47;;
5999;SDS011;3028;49.468;7.694;2023-03-01T01:14:20;9.43;;;8.63;;
5999;SDS011;3028;49.468;7.694;2023-03-01T01:16:22;10.00;;;9.10;;
5999;SDS011;3028;49.468;7.694;2023-03-01T01:18:25;10.67;;;9.63;;
5999;SDS011;3028;49.468;7.694;2023-03-01T01:20:26;9.93;;;9.13;;
5999;SDS011;3028;49.468;7.694;2023-03-01T01:22:28;9.53;;;8.73;;
5999;SDS011;3028;49.468;7.694;2023-03-01T01:24:30;10.53;;;9.70;;
5999;SDS011;3028;49.468;7.694;2023-03-01T01:26:33;11.30;;;10.50;;
5999;SDS011;3028;49.468;7.694;2023-03-01T01:28:35;8.97;;;8.27;;
5999;SDS011;3028;49.468;7.694;2023-03-01T01:30:37;9.47;;;8.57;;
5999;SDS011;3028;49.468;7.694;2023-03-01T01:32:39;9.67;;;8.93;;
5999;SDS011;3028;49.468;7.694;2023-03-01T01:34:40;11.03;;;10.13;;
5999;SDS011;3028;49.468;7.694;2023-03-01T01:36:42;11.70;;;10.37;;
5999;SDS011;3028;49.468;7.694;2023-03-01T01:38:44;8.47;;;7.67;;
5999;SDS011;3028;49.468;7.694;2023-03-01T01:40:47;10.17;;;9.33;;
5999;SDS011;3028;49.468;7.694;2023-03-01T01:42:49;11.00;;;10.10;;
5999;SDS011;3028;49.468;7.694;2023-03-01T01:47:30;12.13;;;11.03;;
5999;SDS011;3028;49.468;7.694;2023-03-01T01:49:51;12.23;;;11.10;;
5999;SDS011;3028;49.468;7.694;2023-03-01T01:51:57;11.37;;;10.37;;
5999;SDS011;3028;49.468;7.694;2023-03-01T01:54:12;11.53;;;10.53;;
5999;SDS011;3028;49.468;7.694;2023-03-01T01:56:17;11.97;;;10.97;;
5999;SDS011;3028;49.468;7.694;2023-03-01T01:58:20;14.33;;;11.27;;
5999;SDS011;3028;49.468;7.694;2023-03-01T02:00:24;12.27;;;11.27;;
5999;SDS011;3028;49.468;7.694;2023-03-01T02:02:27;12.90;;;11.80;;
5999;SDS011;3028;49.468;7.694;2023-03-01T02:04:29;11.87;;;10.87;;
5999;SDS011;3028;49.468;7.694;2023-03-01T02:06:33;12.00;;;11.07;;
5999;SDS011;3028;49.468;7.694;2023-03-01T02:08:38;11.40;;;10.40;;
5999;SDS011;3028;49.468;7.694;2023-03-01T02:10:42;11.40;;;10.40;;
5999;SDS011;3028;49.468;7.694;2023-03-01T02:12:44;11.57;;;10.63;;
5999;SDS011;3028;49.468;7.694;2023-03-01T02:14:46;14.47;;;11.60;;
5999;SDS011;3028;49.468;7.694;2023-03-01T02:16:48;11.23;;;10.30;;
5999;SDS011;3028;49.468;7.694;2023-03-01T02:18:50;13.60;;;12.43;;
5999;SDS011;3028;49.468;7.694;2023-03-01T02:23:18;10.90;;;10.10;;
5999;SDS011;3028;49.468;7.694;2023-03-01T02:27:34;11.97;;;10.87;;
5999;SDS011;3028;49.468;7.694;2023-03-01T02:29:40;12.07;;;11.07;;
5999;SDS011;3028;49.468;7.694;2023-03-01T02:31:44;12.60;;;11.50;;
5999;SDS011;3028;49.468;7.694;2023-03-01T02:33:46;11.53;;;10.63;;
5999;SDS011;3028;49.468;7.694;2023-03-01T02:35:49;13.47;;;12.10;;
5999;SDS011;3028;49.468;7.694;2023-03-01T02:37:51;11.60;;;10.67;;
5999;SDS011;3028;49.468;7.694;2023-03-01T02:39:55;12.23;;;11.10;;
5999;SDS011;3028;49.468;7.694;2023-03-01T02:41:59;12.80;;;11.67;;
5999;SDS011;3028;49.468;7.694;2023-03-01T02:44:03;12.53;;;11.43;;
5999;SDS011;3028;49.468;7.694;2023-03-01T02:46:07;12.73;;;11.70;;
5999;SDS011;3028;49.468;7.694;2023-03-01T02:48:14;13.47;;;12.20;;
5999;SDS011;3028;49.468;7.694;2023-03-01T02:56:59;12.03;;;10.93;;
5999;SDS011;3028;49.468;7.694;2023-03-01T02:59:00;11.40;;;10.23;;
5999;SDS011;3028;49.468;7.694;2023-03-01T03:01:04;12.80;;;11.20;;
5999;SDS011;3028;49.468;7.694;2023-03-01T03:03:06;13.63;;;11.03;;
5999;SDS011;3028;49.468;7.694;2023-03-01T03:05:09;13.23;;;10.97;;
5999;SDS011;3028;49.468;7.694;2023-03-01T03:07:15;12.33;;;11.33;;
5999;SDS011;3028;49.468;7.694;2023-03-01T03:09:18;13.30;;;12.10;;
5999;SDS011;3028;49.468;7.694;2023-03-01T03:11:20;10.93;;;9.93;;
5999;SDS011;3028;49.468;7.694;2023-03-01T03:13:22;12.00;;;10.97;;
5999;SDS011;3028;49.468;7.694;2023-03-01T03:15:24;11.13;;;10.13;;
5999;SDS011;3028;49.468;7.694;2023-03-01T03:17:27;12.63;;;11.53;;
5999;SDS011;3028;49.468;7.694;2023-03-01T03:19:28;13.80;;;12.50;;
5999;SDS011;3028;49.468;7.694;2023-03-01T03:21:33;12.17;;;11.03;;
5999;SDS011;3028;49.468;7.694;2023-03-01T03:23:35;11.73;;;10.80;;
5999;SDS011;3028;49.468;7.694;2023-03-01T03:25:37;10.77;;;9.77;;
5999;SDS011;3028;49.468;7.694;2023-03-01T03:27:40;11.57;;;10.57;;
5999;SDS011;3028;49.468;7.694;2023-03-01T03:29:42;10.40;;;9.40;;
5999;SDS011;3028;49.468;7.694;2023-03-01T03:31:44;11.40;;;10.43;;
5999;SDS011;3028;49.468;7.694;2023-03-01T03:33:45;12.93;;;11.63;;
5999;SDS011;3028;49.468;7.694;2023-03-01T03:35:48;11.20;;;10.30;;
5999;SDS011;3028;49.468;7.694;2023-03-01T03:37:51;12.23;;;11.13;;
5999;SDS011;3028;49.468;7.694;2023-03-01T03:40:07;11.50;;;10.50;;
5999;SDS011;3028;49.468;7.694;2023-03-01T03:42:16;11.60;;;10.10;;
5999;SDS011;3028;49.468;7.694;2023-03-01T03:44:19;13.07;;;11.17;;
5999;SDS011;3028;49.468;7.694;2023-03-01T03:46:21;12.80;;;11.63;;
5999;SDS011;3028;49.468;7.694;2023-03-01T03:48:22;10.97;;;9.73;;
5999;SDS011;3028;49.468;7.694;2023-03-01T03:50:24;12.77;;;11.67;;
5999;SDS011;3028;49.468;7.694;2023-03-01T03:52:26;12.90;;;11.67;;
5999;SDS011;3028;49.468;7.694;2023-03-01T03:54:27;12.03;;;10.90;;
5999;SDS011;3028;49.468;7.694;2023-03-01T03:56:29;12.97;;;11.83;;
5999;SDS011;3028;49.468;7.694;2023-03-01T03:58:31;11.87;;;10.87;;
5999;SDS011;3028;49.468;7.694;2023-03-01T04:00:37;11.57;;;10.47;;
5999;SDS011;3028;49.468;7.694;2023-03-01T04:02:43;12.30;;;11.30;;
5999;SDS011;3028;49.468;7.694;2023-03-01T04:04:46;12.77;;;11.33;;
5999;SDS011;3028;49.468;7.694;2023-03-01T04:06:48;11.90;;;10.73;;
5999;SDS011;3028;49.468;7.694;2023-03-01T04:08:49;13.53;;;12.37;;
5999;SDS011;3028;49.468;7.694;2023-03-01T04:10:53;12.03;;;11.00;;
5999;SDS011;3028;49.468;7.694;2023-03-01T04:12:59;11.90;;;10.83;;
5999;SDS011;3028;49.468;7.694;2023-03-01T04:15:01;13.03;;;11.93;;
5999;SDS011;3028;49.468;7.694;2023-03-01T04:17:14;11.47;;;10.33;;
5999;SDS011;3028;49.468;7.694;2023-03-01T04:19:15;15.23;;;12.00;;
5999;SDS011;3028;49.468;7.694;2023-03-01T04:21:17;12.93;;;11.83;;
5999;SDS011;3028;49.468;7.694;2023-03-01T04:23:21;13.50;;;12.17;;
5999;SDS011;3028;49.468;7.694;2023-03-01T04:25:23;12.60;;;11.37;;
5999;SDS011;3028;49.468;7.694;2023-03-01T04:27:25;13.47;;;11.17;;
5999;SDS011;3028;49.468;7.694;2023-03-01T04:29:27;11.90;;;10.90;;
5999;SDS011;3028;49.468;7.694;2023-03-01T04:31:28;11.80;;;10.80;;
5999;SDS011;3028;49.468;7.694;2023-03-01T04:33:30;14.00;;;12.70;;
5999;SDS011;3028;49.468;7.694;2023-03-01T04:35:32;12.03;;;10.93;;
5999;SDS011;3028;49.468;7.694;2023-03-01T04:37:34;13.83;;;12.60;;
5999;SDS011;3028;49.468;7.694;2023-03-01T04:39:36;12.83;;;11.57;;
5999;SDS011;3028;49.468;7.694;2023-03-01T04:41:46;13.13;;;11.93;;
5999;SDS011;3028;49.468;7.694;2023-03-01T04:43:48;14.13;;;12.93;;
5999;SDS011;3028;49.468;7.694;2023-03-01T04:45:50;12.83;;;11.73;;
5999;SDS011;3028;49.468;7.694;2023-03-01T04:47:52;16.67;;;12.73;;
5999;SDS011;3028;49.468;7.694;2023-03-01T04:49:53;14.30;;;12.57;;
5999;SDS011;3028;49.468;7.694;2023-03-01T04:51:55;13.93;;;12.43;;
5999;SDS011;3028;49.468;7.694;2023-03-01T04:53:59;13.50;;;12.33;;
5999;SDS011;3028;49.468;7.694;2023-03-01T04:56:02;13.07;;;11.97;;
5999;SDS011;3028;49.468;7.694;2023-03-01T04:58:04;13.33;;;12.13;;
5999;SDS011;3028;49.468;7.694;2023-03-01T05:00:06;13.80;;;12.43;;
5999;SDS011;3028;49.468;7.694;2023-03-01T05:02:21;13.13;;;12.03;;
5999;SDS011;3028;49.468;7.694;2023-03-01T05:04:24;13.97;;;12.87;;
5999;SDS011;3028;49.468;7.694;2023-03-01T05:06:26;14.70;;;13.37;;
5999;SDS011;3028;49.468;7.694;2023-03-01T05:08:27;12.87;;;11.73;;
5999;SDS011;3028;49.468;7.694;2023-03-01T05:10:30;13.77;;;12.57;;
5999;SDS011;3028;49.468;7.694;2023-03-01T05:12:33;13.97;;;12.57;;
5999;SDS011;3028;49.468;7.694;2023-03-01T05:14:34;14.93;;;12.63;;
5999;SDS011;3028;49.468;7.694;2023-03-01T05:16:36;15.40;;;14.07;;
5999;SDS011;3028;49.468;7.694;2023-03-01T05:18:39;12.83;;;11.63;;
5999;SDS011;3028;49.468;7.694;2023-03-01T05:20:41;13.73;;;12.33;;
5999;SDS011;3028;49.468;7.694;2023-03-01T05:22:43;14.93;;;13.77;;
5999;SDS011;3028;49.468;7.694;2023-03-01T05:24:45;14.27;;;12.97;;
5999;SDS011;3028;49.468;7.694;2023-03-01T05:26:48;12.57;;;11.37;;
5999;SDS011;3028;49.468;7.694;2023-03-01T05:28:49;14.17;;;12.77;;
5999;SDS011;3028;49.468;7.694;2023-03-01T05:30:51;13.07;;;11.83;;
5999;SDS011;3028;49.468;7.694;2023-03-01T05:32:53;15.03;;;13.53;;
5999;SDS011;3028;49.468;7.694;2023-03-01T05:34:57;13.40;;;12.23;;
5999;SDS011;3028;49.468;7.694;2023-03-01T05:36:58;14.60;;;13.33;;
5999;SDS011;3028;49.468;7.694;2023-03-01T05:39:00;14.40;;;12.80;;
5999;SDS011;3028;49.468;7.694;2023-03-01T05:41:02;15.03;;;12.87;;
5999;SDS011;3028;49.468;7.694;2023-03-01T05:43:04;15.57;;;13.70;;
5999;SDS011;3028;49.468;7.694;2023-03-01T05:45:06;14.93;;;13.73;;
5999;SDS011;3028;49.468;7.694;2023-03-01T05:47:10;14.40;;;12.90;;
5999;SDS011;3028;49.468;7.694;2023-03-01T05:49:12;13.90;;;12.77;;
5999;SDS011;3028;49.468;7.694;2023-03-01T05:51:15;14.30;;;12.90;;
5999;SDS011;3028;49.468;7.694;2023-03-01T05:53:17;14.40;;;12.93;;
5999;SDS011;3028;49.468;7.694;2023-03-01T05:55:23;14.77;;;13.57;;
5999;SDS011;3028;49.468;7.694;2023-03-01T05:57:24;12.53;;;11.53;;
5999;SDS011;3028;49.468;7.694;2023-03-01T05:59:27;13.00;;;11.80;;
5999;SDS011;3028;49.468;7.694;2023-03-01T06:01:28;14.07;;;12.80;;
5999;SDS011;3028;49.468;7.694;2023-03-01T06:03:30;13.90;;;12.47;;
5999;SDS011;3028;49.468;7.694;2023-03-01T06:05:32;15.13;;;13.63;;
5999;SDS011;3028;49.468;7.694;2023-03-01T06:07:34;12.97;;;11.93;;
5999;SDS011;3028;49.468;7.694;2023-03-01T06:09:36;15.13;;;13.73;;
5999;SDS011;3028;49.468;7.694;2023-03-01T06:11:37;14.77;;;13.50;;
5999;SDS011;3028;49.468;7.694;2023-03-01T06:13:40;15.57;;;14.17;;
5999;SDS011;3028;49.468;7.694;2023-03-01T06:15:45;14.73;;;13.30;;
5999;SDS011;3028;49.468;7.694;2023-03-01T06:17:47;15.93;;;14.47;;
5999;SDS011;3028;49.468;7.694;2023-03-01T06:19:48;15.87;;;14.37;;
5999;SDS011;3028;49.468;7.694;2023-03-01T06:21:50;17.10;;;15.37;;
5999;SDS011;3028;49.468;7.694;2023-03-01T06:23:52;15.10;;;13.13;;
5999;SDS011;3028;49.468;7.694;2023-03-01T06:25:53;16.43;;;14.93;;
5999;SDS011;3028;49.468;7.694;2023-03-01T06:27:55;15.77;;;14.37;;
5999;SDS011;3028;49.468;7.694;2023-03-01T06:29:57;17.87;;;14.70;;
5999;SDS011;3028;49.468;7.694;2023-03-01T06:31:59;19.00;;;15.93;;
5999;SDS011;3028;49.468;7.694;2023-03-01T06:34:00;17.90;;;16.17;;
5999;SDS011;3028;49.468;7.694;2023-03-01T06:36:02;16.57;;;14.97;;
5999;SDS011;3028;49.468;7.694;2023-03-01T06:38:04;17.47;;;14.77;;
5999;SDS011;3028;49.468;7.694;2023-03-01T06:40:06;16.77;;;15.27;;
5999;SDS011;3028;49.468;7.694;2023-03-01T06:42:09;16.77;;;15.27;;
5999;SDS011;3028;49.468;7.694;2023-03-01T06:44:11;19.00;;;17.40;;
5999;SDS011;3028;49.468;7.694;2023-03-01T06:46:13;16.47;;;14.87;;
5999;SDS011;3028;49.468;7.694;2023-03-01T06:48:14;16.37;;;14.73;;
5999;SDS011;3028;49.468;7.694;2023-03-01T06:50:17;15.40;;;14.20;;
5999;SDS011;3028;49.468;7.694;2023-03-01T06:52:19;17.63;;;15.50;;
5999;SDS011;3028;49.468;7.694;2023-03-01T06:54:20;17.03;;;15.50;;
5999;SDS011;3028;49.468;7.694;2023-03-01T06:56:23;17.00;;;15.23;;
5999;SDS011;3028;49.468;7.694;2023-03-01T06:58:25;17.73;;;16.00;;
5999;SDS011;3028;49.468;7.694;2023-03-01T07:00:27;16.40;;;14.87;;
5999;SDS011;3028;49.468;7.694;2023-03-01T07:02:30;18.57;;;16.70;;
5999;SDS011;3028;49.468;7.694;2023-03-01T07:04:31;16.90;;;15.33;;
5999;SDS011;3028;49.468;7.694;2023-03-01T07:06:33;16.57;;;14.77;;
5999;SDS011;3028;49.468;7.694;2023-03-01T07:08:35;18.50;;;16.60;;
5999;SDS011;3028;49.468;7.694;2023-03-01T07:10:39;17.87;;;16.17;;
5999;SDS011;3028;49.468;7.694;2023-03-01T07:12:41;16.40;;;14.67;;
5999;SDS011;3028;49.468;7.694;2023-03-01T07:14:43;17.17;;;14.73;;
5999;SDS011;3028;49.468;7.694;2023-03-01T07:16:45;16.43;;;14.90;;
5999;SDS011;3028;49.468;7.694;2023-03-01T07:18:47;14.93;;;13.63;;
5999;SDS011;3028;49.468;7.694;2023-03-01T07:20:49;18.90;;;17.03;;
5999;SDS011;3028;49.468;7.694;2023-03-01T07:22:51;18.63;;;15.03;;
5999;SDS011;3028;49.468;7.694;2023-03-01T07:24:53;16.83;;;15.23;;
5999;SDS011;3028;49.468;7.694;2023-03-01T07:26:55;17.80;;;14.57;;
5999;SDS011;3028;49.468;7.694;2023-03-01T07:28:58;17.47;;;14.93;;
5999;SDS011;3028;49.468;7.694;2023-03-01T07:31:03;18.33;;;16.63;;
5999;SDS011;3028;49.468;7.694;2023-03-01T07:33:06;18.20;;;16.43;;
5999;SDS011;3028;49.468;7.694;2023-03-01T07:35:09;17.67;;;16.03;;
5999;SDS011;3028;49.468;7.694;2023-03-01T07:37:10;18.73;;;15.13;;
5999;SDS011;3028;49.468;7.694;2023-03-01T07:39:12;15.13;;;13.67;;
5999;SDS011;3028;49.468;7.694;2023-03-01T07:41:14;17.00;;;15.37;;
5999;SDS011;3028;49.468;7.694;2023-03-01T07:43:15;19.43;;;14.83;;
5999;SDS011;3028;49.468;7.694;2023-03-01T07:45:17;14.97;;;13.47;;
5999;SDS011;3028;49.468;7.694;2023-03-01T07:47:19;15.17;;;13.67;;
5999;SDS011;3028;49.468;7.694;2023-03-01T07:49:21;15.10;;;13.73;;
5999;SDS011;3028;49.468;7.694;2023-03-01T07:51:23;15.90;;;14.27;;
5999;SDS011;3028;49.468;7.694;2023-03-01T07:53:25;18.33;;;14.07;;
5999;SDS011;3028;49.468;7.694;2023-03-01T07:55:27;16.80;;;15.30;;
5999;SDS011;3028;49.468;7.694;2023-03-01T07:57:28;15.43;;;14.10;;
5999;SDS011;3028;49.468;7.694;2023-03-01T07:59:30;15.83;;;14.40;;
5999;SDS011;3028;49.468;7.694;2023-03-01T08:01:32;17.13;;;14.67;;
5999;SDS011;3028;49.468;7.694;2023-03-01T08:03:34;19.97;;;15.10;;
5999;SDS011;3028;49.468;7.694;2023-03-01T08:05:37;16.53;;;14.93;;
5999;SDS011;3028;49.468;7.694;2023-03-01T08:07:38;15.90;;;14.47;;
5999;SDS011;3028;49.468;7.694;2023-03-01T08:09:40;15.83;;;14.27;;
5999;SDS011;3028;49.468;7.694;2023-03-01T08:11:42;15.17;;;13.67;;
5999;SDS011;3028;49.468;7.694;2023-03-01T08:13:44;14.60;;;13.38;;
5999;SDS011;3028;49.468;7.694;2023-03-01T08:15:51;18.40;;;13.13;;
5999;SDS011;3028;49.468;7.694;2023-03-01T08:17:54;15.80;;;14.20;;
5999;SDS011;3028;49.468;7.694;2023-03-01T08:19:55;13.45;;;12.13;;
5999;SDS011;3028;49.468;7.694;2023-03-01T08:21:57;15.20;;;13.93;;
5999;SDS011;3028;49.468;7.694;2023-03-01T08:23:59;15.43;;;14.03;;
5999;SDS011;3028;49.468;7.694;2023-03-01T08:26:34;14.95;;;13.52;;
5999;SDS011;3028;49.468;7.694;2023-03-01T08:28:29;13.82;;;12.43;;
5999;SDS011;3028;49.468;7.694;2023-03-01T08:30:30;16.38;;;14.90;;
5999;SDS011;3028;49.468;7.694;2023-03-01T08:32:37;14.38;;;13.05;;
5999;SDS011;3028;49.468;7.694;2023-03-01T08:34:39;15.18;;;13.73;;
5999;SDS011;3028;49.468;7.694;2023-03-01T08:36:44;14.65;;;13.38;;
5999;SDS011;3028;49.468;7.694;2023-03-01T08:38:46;14.82;;;13.35;;
5999;SDS011;3028;49.468;7.694;2023-03-01T08:40:48;12.88;;;11.68;;
5999;SDS011;3028;49.468;7.694;2023-03-01T08:42:50;17.75;;;13.32;;
5999;SDS011;3028;49.468;7.694;2023-03-01T08:44:51;10.40;;;9.35;;
5999;SDS011;3028;49.468;7.694;2023-03-01T08:46:53;10.77;;;9.70;;
5999;SDS011;3028;49.468;7.694;2023-03-01T08:48:56;12.68;;;11.50;;
5999;SDS011;3028;49.468;7.694;2023-03-01T08:51:08;14.27;;;12.05;;
5999;SDS011;3028;49.468;7.694;2023-03-01T08:53:10;12.68;;;11.50;;
5999;SDS011;3028;49.468;7.694;2023-03-01T08:55:12;15.45;;;11.60;;
5999;SDS011;3028;49.468;7.694;2023-03-01T08:57:16;17.30;;;11.95;;
5999;SDS011;3028;49.468;7.694;2023-03-01T08:59:18;15.25;;;10.57;;
5999;SDS011;3028;49.468;7.694;2023-03-01T09:01:20;15.57;;;13.98;;
5999;SDS011;3028;49.468;7.694;2023-03-01T09:03:22;13.73;;;12.27;;
5999;SDS011;3028;49.468;7.694;2023-03-01T09:05:25;11.93;;;10.48;;
5999;SDS011;3028;49.468;7.694;2023-03-01T09:07:27;13.75;;;12.35;;
5999;SDS011;3028;49.468;7.694;2023-03-01T09:09:29;12.90;;;11.40;;
5999;SDS011;3028;49.468;7.694;2023-03-01T09:11:34;13.52;;;12.05;;
5999;SDS011;3028;49.468;7.694;2023-03-01T09:13:35;15.27;;;11.65;;
5999;SDS011;3028;49.468;7.694;2023-03-01T09:15:38;13.98;;;12.48;;
5999;SDS011;3028;49.468;7.694;2023-03-01T09:17:39;14.95;;;12.07;;
5999;SDS011;3028;49.468;7.694;2023-03-01T09:19:41;11.77;;;9.93;;
5999;SDS011;3028;49.468;7.694;2023-03-01T09:21:43;12.30;;;11.07;;
5999;SDS011;3028;49.468;7.694;2023-03-01T09:23:55;12.95;;;11.30;;
5999;SDS011;3028;49.468;7.694;2023-03-01T09:25:58;13.15;;;11.38;;
5999;SDS011;3028;49.468;7.694;2023-03-01T09:28:00;13.50;;;12.13;;
5999;SDS011;3028;49.468;7.694;2023-03-01T09:30:01;13.82;;;12.50;;
5999;SDS011;3028;49.468;7.694;2023-03-01T09:32:04;12.30;;;11.02;;
5999;SDS011;3028;49.468;7.694;2023-03-01T09:34:06;19.30;;;11.30;;
5999;SDS011;3028;49.468;7.694;2023-03-01T09:36:13;14.35;;;11.32;;
5999;SDS011;3028;49.468;7.694;2023-03-01T09:38:16;13.48;;;12.25;;
5999;SDS011;3028;49.468;7.694;2023-03-01T09:40:21;12.13;;;11.02;;
5999;SDS011;3028;49.468;7.694;2023-03-01T09:42:24;16.52;;;12.93;;
5999;SDS011;3028;49.468;7.694;2023-03-01T09:44:31;20.15;;;13.40;;
5999;SDS011;3028;49.468;7.694;2023-03-01T09:46:43;17.05;;;13.25;;
5999;SDS011;3028;49.468;7.694;2023-03-01T09:48:48;15.27;;;11.07;;
5999;SDS011;3028;49.468;7.694;2023-03-01T09:50:53;14.80;;;12.93;;
5999;SDS011;3028;49.468;7.694;2023-03-01T09:55:48;16.13;;;12.80;;
5999;SDS011;3028;49.468;7.694;2023-03-01T09:57:51;16.67;;;12.40;;
5999;SDS011;3028;49.468;7.694;2023-03-01T10:00:00;12.38;;;11.13;;
5999;SDS011;3028;49.468;7.694;2023-03-01T10:04:26;13.98;;;12.57;;
5999;SDS011;3028;49.468;7.694;2023-03-01T10:07:14;18.80;;;7.40;;
5999;SDS011;3028;49.468;7.694;2023-03-01T10:09:19;12.52;;;7.25;;
5999;SDS011;3028;49.468;7.694;2023-03-01T10:11:21;9.30;;;8.38;;
5999;SDS011;3028;49.468;7.694;2023-03-01T10:13:28;17.73;;;9.48;;
5999;SDS011;3028;49.468;7.694;2023-03-01T10:15:35;8.38;;;7.53;;
5999;SDS011;3028;49.468;7.694;2023-03-01T10:20:13;10.13;;;8.35;;
5999;SDS011;3028;49.468;7.694;2023-03-01T10:22:18;12.65;;;9.07;;
5999;SDS011;3028;49.468;7.694;2023-03-01T10:24:34;8.23;;;7.53;;
5999;SDS011;3028;49.468;7.694;2023-03-01T10:26:39;15.43;;;9.43;;
5999;SDS011;3028;49.468;7.694;2023-03-01T10:30:49;11.80;;;9.43;;
5999;SDS011;3028;49.468;7.694;2023-03-01T10:32:52;11.32;;;10.23;;
5999;SDS011;3028;49.468;7.694;2023-03-01T10:34:54;10.98;;;9.95;;
5999;SDS011;3028;49.468;7.694;2023-03-01T10:36:57;10.65;;;9.68;;
5999;SDS011;3028;49.468;7.694;2023-03-01T10:39:00;9.93;;;8.82;;
5999;SDS011;3028;49.468;7.694;2023-03-01T10:41:12;15.13;;;9.27;;
5999;SDS011;3028;49.468;7.694;2023-03-01T10:43:14;10.43;;;9.25;;
5999;SDS011;3028;49.468;7.694;2023-03-01T10:47:24;10.50;;;9.50;;
5999;SDS011;3028;49.468;7.694;2023-03-01T10:49:27;15.75;;;11.30;;
5999;SDS011;3028;49.468;7.694;2023-03-01T10:51:29;18.90;;;9.77;;
5999;SDS011;3028;49.468;7.694;2023-03-01T10:53:40;10.00;;;9.07;;
5999;SDS011;3028;49.468;7.694;2023-03-01T10:55:43;10.00;;;8.55;;
5999;SDS011;3028;49.468;7.694;2023-03-01T10:57:45;10.77;;;9.65;;
5999;SDS011;3028;49.468;7.694;2023-03-01T10:59:47;12.45;;;9.13;;
5999;SDS011;3028;49.468;7.694;2023-03-01T11:02:26;11.88;;;9.48;;
5999;SDS011;3028;49.468;7.694;2023-03-01T11:04:30;11.57;;;10.05;;
5999;SDS011;3028;49.468;7.694;2023-03-01T11:06:34;14.07;;;10.65;;
5999;SDS011;3028;49.468;7.694;2023-03-01T11:08:41;10.05;;;9.00;;
5999;SDS011;3028;49.468;7.694;2023-03-01T11:10:47;8.57;;;7.72;;
5999;SDS011;3028;49.468;7.694;2023-03-01T11:12:50;12.32;;;10.57;;
5999;SDS011;3028;49.468;7.694;2023-03-01T11:14:55;11.38;;;10.32;;
5999;SDS011;3028;49.468;7.694;2023-03-01T11:16:58;9.48;;;8.63;;
5999;SDS011;3028;49.468;7.694;2023-03-01T11:21:11;15.15;;;9.38;;
5999;SDS011;3028;49.468;7.694;2023-03-01T11:23:13;12.30;;;8.70;;
5999;SDS011;3028;49.468;7.694;2023-03-01T11:25:15;14.48;;;9.50;;
5999;SDS011;3028;49.468;7.694;2023-03-01T11:27:26;10.05;;;9.13;;
5999;SDS011;3028;49.468;7.694;2023-03-01T11:29:32;13.98;;;11.30;;
5999;SDS011;3028;49.468;7.694;2023-03-01T11:31:49;12.00;;;10.90;;
5999;SDS011;3028;49.468;7.694;2023-03-01T11:33:59;10.70;;;8.55;;
5999;SDS011;3028;49.468;7.694;2023-03-01T11:36:07;10.70;;;9.60;;
5999;SDS011;3028;49.468;7.694;2023-03-01T11:38:23;12.50;;;10.57;;
5999;SDS011;3028;49.468;7.694;2023-03-01T11:40:43;10.27;;;9.25;;
5999;SDS011;3028;49.468;7.694;2023-03-01T11:44:55;16.50;;;10.73;;
5999;SDS011;3028;49.468;7.694;2023-03-01T11:56:52;10.77;;;9.77;;
5999;SDS011;3028;49.468;7.694;2023-03-01T12:08:04;10.43;;;8.93;;
5999;SDS011;3028;49.468;7.694;2023-03-01T12:31:03;13.90;;;10.18;;
5999;SDS011;3028;49.468;7.694;2023-03-01T12:33:45;10.35;;;9.25;;
5999;SDS011;3028;49.468;7.694;2023-03-01T12:36:21;16.23;;;10.93;;
5999;SDS011;3028;49.468;7.694;2023-03-01T12:47:27;11.90;;;8.95;;
5999;SDS011;3028;49.468;7.694;2023-03-01T12:50:06;17.15;;;9.68;;
5999;SDS011;3028;49.468;7.694;2023-03-01T12:52:30;11.65;;;10.45;;
5999;SDS011;3028;49.468;7.694;2023-03-01T12:54:45;14.73;;;10.35;;
5999;SDS011;3028;49.468;7.694;2023-03-01T12:56:47;14.65;;;10.20;;
5999;SDS011;3028;49.468;7.694;2023-03-01T12:59:07;11.70;;;10.60;;
5999;SDS011;3028;49.468;7.694;2023-03-01T13:01:22;9.55;;;8.65;;
5999;SDS011;3028;49.468;7.694;2023-03-01T13:03:55;9.75;;;8.80;;
5999;SDS011;3028;49.468;7.694;2023-03-01T13:06:07;10.25;;;9.25;;
5999;SDS011;3028;49.468;7.694;2023-03-01T13:08:27;13.13;;;10.90;;
5999;SDS011;3028;49.468;7.694;2023-03-01T13:10:35;10.20;;;9.30;;
5999;SDS011;3028;49.468;7.694;2023-03-01T13:14:50;10.77;;;9.75;;
5999;SDS011;3028;49.468;7.694;2023-03-01T13:16:55;10.43;;;9.48;;
5999;SDS011;3028;49.468;7.694;2023-03-01T13:19:12;10.30;;;9.40;;
5999;SDS011;3028;49.468;7.694;2023-03-01T13:21:28;11.32;;;9.65;;
5999;SDS011;3028;49.468;7.694;2023-03-01T13:23:33;11.30;;;10.23;;
5999;SDS011;3028;49.468;7.694;2023-03-01T13:28:32;13.10;;;10.18;;
5999;SDS011;3028;49.468;7.694;2023-03-01T13:32:38;10.63;;;9.23;;
5999;SDS011;3028;49.468;7.694;2023-03-01T13:34:46;11.40;;;9.55;;
5999;SDS011;3028;49.468;7.694;2023-03-01T13:36:49;12.20;;;11.00;;
5999;SDS011;3028;49.468;7.694;2023-03-01T13:40:59;11.43;;;10.25;;
5999;SDS011;3028;49.468;7.694;2023-03-01T13:43:22;10.15;;;9.23;;
5999;SDS011;3028;49.468;7.694;2023-03-01T13:45:35;11.55;;;9.43;;
5999;SDS011;3028;49.468;7.694;2023-03-01T13:47:40;13.77;;;10.82;;
5999;SDS011;3028;49.468;7.694;2023-03-01T13:49:57;9.35;;;8.45;;
5999;SDS011;3028;49.468;7.694;2023-03-01T13:51:59;10.80;;;8.38;;
5999;SDS011;3028;49.468;7.694;2023-03-01T13:54:03;9.30;;;8.38;;
5999;SDS011;3028;49.468;7.694;2023-03-01T13:56:15;13.35;;;10.27;;
5999;SDS011;3028;49.468;7.694;2023-03-01T13:58:29;24.75;;;11.07;;
5999;SDS011;3028;49.468;7.694;2023-03-01T14:00:34;13.10;;;9.55;;
5999;SDS011;3028;49.468;7.694;2023-03-01T14:02:36;11.63;;;9.85;;